Предлагаем Вашему вниманию английскую версию страницы: AUTOTAF.ME UWWW - aviation weather forecast Samara (Kurumoch)

AUTOTAF UWWW - авиапрогноз Самара (Курумоч)

Сегодня рассвет 03:57 UTC, восход солнца 04:36 UTC,
местный полдень 08:51 UTC, заход солнца 13:06 UTC,
наступление темноты 13:45 UTC.

Краткий прогноз UWWW на 9 часов

AUTOTAF.ME UWWW 240500Z 2406/2415 22003MPS 3000 VCSH BR BKN002 OVC010CB   
   TEMPO 2406/2407 1500  
  BECMG 2407/2409 BR  
  BECMG 2410/2412 BKN005  
  FM241500 20004MPS 1000 BR BKN003

Детальный прогноз UWWW на 24 часа

AUTOTAF.ME UWWW 240500Z 2406/2506 22003MPS 3000 VCSH BR BKN002 OVC010CB TX01/2409Z TNM02/2506Z 
   TEMPO 2406/2407 1500  
  BECMG 2407/2409 BR  
  BECMG 2410/2412 BKN005  
  FM241500 20004MPS 1000 BR BKN003  
  FM242100 20003MPS 2000 BR OVC005 
  BECMG 2422/2500 3000  
  FM250300 19004MPS 5000 BR OVC004 
  FM250600 19004MPS 5000 BR OVC003

Подробный табличный прогноз

Время (UTC) miniAUTOTAF на 3 ч WX FZLVL
M AGL
ICE TURB Т
(°С)
Тd
(°С)
f(%) QNH
(гПа)
WIND/T
03 VRB02MPS 1000 FZRA BR OVC002 FZRA BR 810 MOD FL90/FL100 -1 -2 95 1022 ...
06 22003MPS 3000 VCSH BR BKN002 OVC010CB TEMPO 1500 VCSH BR 180 MOD FL70/FL80 0 -1 94 1023 ...
09 21003MPS 3000 BR OVC002 BR 720 FBL FL50/FL170 MOD SFC/FL20 1 0 95 1024 ...
12 21003MPS 3000 BR BKN005 BR SFC MOD FL10/FL150 MOD SFC/FL20 1 0 94 1025 ...
15 20004MPS 1000 BR BKN003 BR SFC MOD FL10/FL90 MOD SFC/FL20 1 0 95 1026 ...
18 20004MPS 1000 BR BKN003 BR SFC MOD FL10/FL20 MOD SFC/FL20 1 0 96 1027 ...
21 20003MPS 2000 BR OVC005 BR SFC MOD FL10/FL20 MOD SFC/FL20 1 0 96 1028 ...


Широта 53.50111°, долгота 50.15389°, высота 145 м абс.
Средняя высота рельефа местности 137 м абс.
Прогнозы обновляются четыре раза в сутки: в 02, 08, 14, 20 ч всемирного времени.


Выбрать прогноз по другой модели Самара (Курумоч)
Онлайн-сводка гроз по Самара (Курумоч) (для РФ и ближнего зарубежья)
Карта фактических гроз в окрестностях Самара (Курумоч)
Динамические прогностические карты (ventusky.com)
Прогностическая карта высоты нижней границы облаков по Самара (Курумоч) (windy.com)
Выбрать другой город

Прогноз предназначен для личного научно-познавательного использования частными лицами
и не предназначен для принятия важных решений и выполнения реальных полётов воздушных судов

При копировании или ином использовании любых материалов данного сайта ссылка на © meteocenter.asia обязательна.

0.64/1